sensor_id;sensor_type;location;lat;lon;timestamp;P1;durP1;ratioP1;P2;durP2;ratioP2
7361;SDS011;3721;44.490;11.220;2022-09-24T06:32:46;3.23;;;1.80;;
7361;SDS011;3721;44.490;11.220;2022-09-24T06:35:12;3.40;;;1.80;;
7361;SDS011;3721;44.490;11.220;2022-09-24T06:37:38;3.60;;;2.17;;
7361;SDS011;3721;44.490;11.220;2022-09-24T06:40:04;4.17;;;2.53;;
7361;SDS011;3721;44.490;11.220;2022-09-24T06:42:30;8.07;;;2.60;;
7361;SDS011;3721;44.490;11.220;2022-09-24T06:44:56;6.37;;;2.80;;
7361;SDS011;3721;44.490;11.220;2022-09-24T06:47:22;6.80;;;4.00;;
7361;SDS011;3721;44.490;11.220;2022-09-24T06:49:48;5.60;;;3.37;;
7361;SDS011;3721;44.490;11.220;2022-09-24T06:52:14;6.10;;;3.30;;
7361;SDS011;3721;44.490;11.220;2022-09-24T06:54:40;7.03;;;3.00;;
7361;SDS011;3721;44.490;11.220;2022-09-24T06:57:06;5.60;;;2.73;;
7361;SDS011;3721;44.490;11.220;2022-09-24T06:59:32;6.30;;;2.87;;
7361;SDS011;3721;44.490;11.220;2022-09-24T07:01:58;3.83;;;2.50;;
7361;SDS011;3721;44.490;11.220;2022-09-24T07:04:23;4.43;;;2.60;;
7361;SDS011;3721;44.490;11.220;2022-09-24T07:06:49;3.90;;;2.30;;
7361;SDS011;3721;44.490;11.220;2022-09-24T07:09:33;5.53;;;2.70;;
7361;SDS011;3721;44.490;11.220;2022-09-24T07:12:00;7.00;;;2.97;;
7361;SDS011;3721;44.490;11.220;2022-09-24T07:14:29;7.70;;;2.80;;
7361;SDS011;3721;44.490;11.220;2022-09-24T07:16:55;5.80;;;3.10;;
7361;SDS011;3721;44.490;11.220;2022-09-24T07:19:20;7.27;;;3.20;;
7361;SDS011;3721;44.490;11.220;2022-09-24T07:21:46;5.50;;;2.80;;
7361;SDS011;3721;44.490;11.220;2022-09-24T07:24:12;5.47;;;3.10;;
7361;SDS011;3721;44.490;11.220;2022-09-24T07:26:37;6.63;;;3.73;;
7361;SDS011;3721;44.490;11.220;2022-09-24T07:29:03;7.23;;;2.90;;
7361;SDS011;3721;44.490;11.220;2022-09-24T07:31:29;4.73;;;2.60;;
7361;SDS011;3721;44.490;11.220;2022-09-24T07:33:55;8.30;;;2.93;;
7361;SDS011;3721;44.490;11.220;2022-09-24T07:36:20;5.37;;;2.40;;
7361;SDS011;3721;44.490;11.220;2022-09-24T07:38:47;4.40;;;2.67;;
7361;SDS011;3721;44.490;11.220;2022-09-24T07:41:13;5.20;;;2.43;;
7361;SDS011;3721;44.490;11.220;2022-09-24T07:43:39;4.87;;;2.80;;
7361;SDS011;3721;44.490;11.220;2022-09-24T07:46:07;8.83;;;2.97;;
7361;SDS011;3721;44.490;11.220;2022-09-24T07:48:33;8.50;;;2.57;;
7361;SDS011;3721;44.490;11.220;2022-09-24T07:50:59;5.27;;;2.60;;
7361;SDS011;3721;44.490;11.220;2022-09-24T07:53:24;3.13;;;2.00;;
7361;SDS011;3721;44.490;11.220;2022-09-24T07:55:50;4.00;;;2.30;;
7361;SDS011;3721;44.490;11.220;2022-09-24T07:58:16;5.13;;;2.43;;
7361;SDS011;3721;44.490;11.220;2022-09-24T08:00:43;4.03;;;1.90;;
7361;SDS011;3721;44.490;11.220;2022-09-24T08:03:08;7.03;;;2.40;;
7361;SDS011;3721;44.490;11.220;2022-09-24T08:05:34;5.27;;;2.07;;
7361;SDS011;3721;44.490;11.220;2022-09-24T08:08:06;6.23;;;2.10;;
7361;SDS011;3721;44.490;11.220;2022-09-24T08:10:32;5.03;;;2.33;;
7361;SDS011;3721;44.490;11.220;2022-09-24T08:13:00;4.03;;;2.50;;
7361;SDS011;3721;44.490;11.220;2022-09-24T08:15:26;5.13;;;2.13;;
7361;SDS011;3721;44.490;11.220;2022-09-24T08:17:52;4.30;;;1.90;;
7361;SDS011;3721;44.490;11.220;2022-09-24T08:20:17;3.50;;;2.17;;
7361;SDS011;3721;44.490;11.220;2022-09-24T08:22:43;4.23;;;2.20;;
7361;SDS011;3721;44.490;11.220;2022-09-24T08:25:09;4.80;;;2.30;;
7361;SDS011;3721;44.490;11.220;2022-09-24T08:27:35;4.60;;;2.40;;
7361;SDS011;3721;44.490;11.220;2022-09-24T08:30:02;4.80;;;2.37;;
7361;SDS011;3721;44.490;11.220;2022-09-24T08:32:29;6.00;;;2.20;;
7361;SDS011;3721;44.490;11.220;2022-09-24T08:34:54;6.00;;;2.30;;
7361;SDS011;3721;44.490;11.220;2022-09-24T08:37:20;5.37;;;2.10;;
7361;SDS011;3721;44.490;11.220;2022-09-24T08:39:46;3.80;;;2.03;;
7361;SDS011;3721;44.490;11.220;2022-09-24T08:42:35;4.33;;;2.00;;
7361;SDS011;3721;44.490;11.220;2022-09-24T08:45:36;5.73;;;1.93;;
7361;SDS011;3721;44.490;11.220;2022-09-24T08:48:26;11.23;;;2.33;;
7361;SDS011;3721;44.490;11.220;2022-09-24T08:51:02;5.83;;;2.57;;
7361;SDS011;3721;44.490;11.220;2022-09-24T08:56:06;5.10;;;2.27;;
7361;SDS011;3721;44.490;11.220;2022-09-24T08:58:43;4.93;;;1.83;;
7361;SDS011;3721;44.490;11.220;2022-09-24T09:01:27;3.50;;;1.77;;
7361;SDS011;3721;44.490;11.220;2022-09-24T09:09:13;3.40;;;1.77;;
7361;SDS011;3721;44.490;11.220;2022-09-24T09:12:11;3.60;;;1.60;;
7361;SDS011;3721;44.490;11.220;2022-09-24T09:17:22;3.13;;;1.67;;
7361;SDS011;3721;44.490;11.220;2022-09-24T09:20:02;6.77;;;1.90;;
7361;SDS011;3721;44.490;11.220;2022-09-24T09:22:36;3.60;;;2.00;;
7361;SDS011;3721;44.490;11.220;2022-09-24T09:25:26;3.10;;;1.43;;
7361;SDS011;3721;44.490;11.220;2022-09-24T09:28:08;3.10;;;1.60;;
7361;SDS011;3721;44.490;11.220;2022-09-24T09:30:53;6.40;;;1.57;;
7361;SDS011;3721;44.490;11.220;2022-09-24T09:38:59;3.30;;;1.70;;
7361;SDS011;3721;44.490;11.220;2022-09-24T09:41:41;3.00;;;1.60;;
7361;SDS011;3721;44.490;11.220;2022-09-24T09:47:04;3.30;;;1.53;;
7361;SDS011;3721;44.490;11.220;2022-09-24T09:49:56;2.93;;;1.63;;
7361;SDS011;3721;44.490;11.220;2022-09-24T09:52:36;3.10;;;1.40;;
7361;SDS011;3721;44.490;11.220;2022-09-24T09:55:04;4.10;;;1.60;;
7361;SDS011;3721;44.490;11.220;2022-09-24T09:57:30;2.60;;;1.23;;
7361;SDS011;3721;44.490;11.220;2022-09-24T10:00:00;3.57;;;1.50;;
7361;SDS011;3721;44.490;11.220;2022-09-24T10:02:29;3.00;;;1.30;;
7361;SDS011;3721;44.490;11.220;2022-09-24T10:04:58;3.63;;;1.67;;
7361;SDS011;3721;44.490;11.220;2022-09-24T10:07:26;3.53;;;1.73;;
7361;SDS011;3721;44.490;11.220;2022-09-24T10:12:26;5.13;;;1.63;;
7361;SDS011;3721;44.490;11.220;2022-09-24T10:14:59;3.90;;;1.77;;
7361;SDS011;3721;44.490;11.220;2022-09-24T10:17:34;3.80;;;1.83;;
7361;SDS011;3721;44.490;11.220;2022-09-24T10:20:06;3.60;;;1.53;;
7361;SDS011;3721;44.490;11.220;2022-09-24T10:22:38;3.30;;;1.60;;
7361;SDS011;3721;44.490;11.220;2022-09-24T10:25:05;4.43;;;2.00;;
7361;SDS011;3721;44.490;11.220;2022-09-24T10:27:41;4.60;;;1.87;;
7361;SDS011;3721;44.490;11.220;2022-09-24T10:30:12;4.83;;;2.00;;
7361;SDS011;3721;44.490;11.220;2022-09-24T10:32:57;4.50;;;1.80;;
7361;SDS011;3721;44.490;11.220;2022-09-24T10:38:20;4.20;;;2.13;;
7361;SDS011;3721;44.490;11.220;2022-09-24T10:40:49;5.53;;;2.60;;
7361;SDS011;3721;44.490;11.220;2022-09-24T10:43:19;3.20;;;1.50;;
7361;SDS011;3721;44.490;11.220;2022-09-24T10:48:15;3.07;;;1.57;;
7361;SDS011;3721;44.490;11.220;2022-09-24T10:51:05;4.53;;;2.00;;
7361;SDS011;3721;44.490;11.220;2022-09-24T10:53:50;2.73;;;1.43;;
7361;SDS011;3721;44.490;11.220;2022-09-24T10:56:43;3.47;;;1.50;;
7361;SDS011;3721;44.490;11.220;2022-09-24T11:09:39;3.73;;;1.70;;
7361;SDS011;3721;44.490;11.220;2022-09-24T11:12:19;3.93;;;1.70;;
7361;SDS011;3721;44.490;11.220;2022-09-24T11:15:05;3.30;;;1.63;;
7361;SDS011;3721;44.490;11.220;2022-09-24T11:20:36;3.77;;;1.90;;
7361;SDS011;3721;44.490;11.220;2022-09-24T11:45:50;5.33;;;2.10;;
7361;SDS011;3721;44.490;11.220;2022-09-24T11:53:53;3.83;;;1.80;;
7361;SDS011;3721;44.490;11.220;2022-09-24T12:01:51;3.90;;;1.77;;
7361;SDS011;3721;44.490;11.220;2022-09-24T12:04:24;3.90;;;1.80;;
7361;SDS011;3721;44.490;11.220;2022-09-24T12:07:06;2.97;;;1.70;;
7361;SDS011;3721;44.490;11.220;2022-09-24T12:09:42;3.70;;;2.10;;
7361;SDS011;3721;44.490;11.220;2022-09-24T12:12:17;3.53;;;1.90;;
7361;SDS011;3721;44.490;11.220;2022-09-24T12:14:50;5.73;;;1.70;;
7361;SDS011;3721;44.490;11.220;2022-09-24T12:17:20;6.17;;;1.77;;
7361;SDS011;3721;44.490;11.220;2022-09-24T12:22:45;5.00;;;1.80;;
7361;SDS011;3721;44.490;11.220;2022-09-24T12:25:14;4.00;;;1.80;;
7361;SDS011;3721;44.490;11.220;2022-09-24T12:27:40;5.40;;;1.93;;
7361;SDS011;3721;44.490;11.220;2022-09-24T12:33:15;3.50;;;1.90;;
7361;SDS011;3721;44.490;11.220;2022-09-24T12:36:08;3.40;;;1.73;;
7361;SDS011;3721;44.490;11.220;2022-09-24T12:39:11;3.50;;;2.00;;
7361;SDS011;3721;44.490;11.220;2022-09-24T12:41:48;5.40;;;2.03;;
7361;SDS011;3721;44.490;11.220;2022-09-24T12:44:25;8.30;;;1.97;;
7361;SDS011;3721;44.490;11.220;2022-09-24T12:47:13;5.97;;;2.90;;
7361;SDS011;3721;44.490;11.220;2022-09-24T12:49:42;4.53;;;2.70;;
7361;SDS011;3721;44.490;11.220;2022-09-24T12:54:40;9.43;;;2.43;;
7361;SDS011;3721;44.490;11.220;2022-09-24T12:59:52;8.57;;;3.43;;
7361;SDS011;3721;44.490;11.220;2022-09-24T13:07:41;4.83;;;3.10;;
7361;SDS011;3721;44.490;11.220;2022-09-24T13:12:49;9.43;;;3.67;;
7361;SDS011;3721;44.490;11.220;2022-09-24T13:15:23;9.03;;;3.40;;
7361;SDS011;3721;44.490;11.220;2022-09-24T13:18:02;8.87;;;3.40;;
7361;SDS011;3721;44.490;11.220;2022-09-24T13:20:59;8.37;;;3.70;;
7361;SDS011;3721;44.490;11.220;2022-09-24T13:26:02;10.03;;;3.90;;
7361;SDS011;3721;44.490;11.220;2022-09-24T13:28:31;7.53;;;4.63;;
7361;SDS011;3721;44.490;11.220;2022-09-24T13:34:25;8.43;;;3.63;;
7361;SDS011;3721;44.490;11.220;2022-09-24T13:37:10;11.37;;;3.13;;
7361;SDS011;3721;44.490;11.220;2022-09-24T13:40:24;5.73;;;2.83;;
7361;SDS011;3721;44.490;11.220;2022-09-24T13:45:27;4.60;;;2.40;;
7361;SDS011;3721;44.490;11.220;2022-09-24T13:50:31;5.80;;;3.37;;
7361;SDS011;3721;44.490;11.220;2022-09-24T13:52:59;6.13;;;2.90;;
7361;SDS011;3721;44.490;11.220;2022-09-24T13:55:54;7.07;;;3.17;;
7361;SDS011;3721;44.490;11.220;2022-09-24T14:00:59;5.27;;;3.00;;
7361;SDS011;3721;44.490;11.220;2022-09-24T14:03:34;6.97;;;2.87;;
7361;SDS011;3721;44.490;11.220;2022-09-24T14:06:08;6.20;;;2.83;;
7361;SDS011;3721;44.490;11.220;2022-09-24T14:08:36;6.67;;;3.00;;
7361;SDS011;3721;44.490;11.220;2022-09-24T14:11:17;5.90;;;2.80;;
7361;SDS011;3721;44.490;11.220;2022-09-24T14:13:45;4.10;;;2.43;;
7361;SDS011;3721;44.490;11.220;2022-09-24T14:18:42;5.50;;;2.50;;
7361;SDS011;3721;44.490;11.220;2022-09-24T14:26:29;7.87;;;3.00;;
7361;SDS011;3721;44.490;11.220;2022-09-24T14:29:25;5.60;;;3.50;;
7361;SDS011;3721;44.490;11.220;2022-09-24T14:32:02;10.60;;;4.77;;
7361;SDS011;3721;44.490;11.220;2022-09-24T14:37:17;12.83;;;4.37;;
7361;SDS011;3721;44.490;11.220;2022-09-24T14:39:49;6.97;;;3.80;;
7361;SDS011;3721;44.490;11.220;2022-09-24T14:42:39;10.10;;;4.50;;
7361;SDS011;3721;44.490;11.220;2022-09-24T14:45:08;12.83;;;8.07;;
7361;SDS011;3721;44.490;11.220;2022-09-24T14:47:41;25.60;;;16.87;;
7361;SDS011;3721;44.490;11.220;2022-09-24T14:55:52;6.87;;;5.03;;
7361;SDS011;3721;44.490;11.220;2022-09-24T15:00:48;11.70;;;4.40;;
7361;SDS011;3721;44.490;11.220;2022-09-24T15:03:20;6.50;;;4.17;;
7361;SDS011;3721;44.490;11.220;2022-09-24T15:06:03;7.33;;;3.80;;
7361;SDS011;3721;44.490;11.220;2022-09-24T15:08:50;8.73;;;4.53;;
7361;SDS011;3721;44.490;11.220;2022-09-24T15:11:17;6.73;;;4.20;;
7361;SDS011;3721;44.490;11.220;2022-09-24T15:13:43;9.10;;;4.00;;
7361;SDS011;3721;44.490;11.220;2022-09-24T15:16:16;7.60;;;3.60;;
7361;SDS011;3721;44.490;11.220;2022-09-24T15:18:48;5.73;;;3.87;;
7361;SDS011;3721;44.490;11.220;2022-09-24T15:21:25;7.03;;;4.27;;
7361;SDS011;3721;44.490;11.220;2022-09-24T15:23:52;9.33;;;4.80;;
7361;SDS011;3721;44.490;11.220;2022-09-24T15:26:18;6.20;;;3.60;;
7361;SDS011;3721;44.490;11.220;2022-09-24T15:28:44;9.20;;;3.70;;
7361;SDS011;3721;44.490;11.220;2022-09-24T15:31:10;5.87;;;3.47;;
7361;SDS011;3721;44.490;11.220;2022-09-24T15:33:36;7.67;;;4.20;;
7361;SDS011;3721;44.490;11.220;2022-09-24T15:36:01;6.83;;;4.57;;
7361;SDS011;3721;44.490;11.220;2022-09-24T15:38:27;6.93;;;3.87;;
7361;SDS011;3721;44.490;11.220;2022-09-24T15:40:53;5.83;;;3.60;;
7361;SDS011;3721;44.490;11.220;2022-09-24T15:43:22;5.10;;;3.50;;
7361;SDS011;3721;44.490;11.220;2022-09-24T15:45:49;11.03;;;4.47;;
7361;SDS011;3721;44.490;11.220;2022-09-24T15:48:15;9.73;;;4.43;;
7361;SDS011;3721;44.490;11.220;2022-09-24T15:50:42;9.73;;;5.10;;
7361;SDS011;3721;44.490;11.220;2022-09-24T15:53:11;5.83;;;3.73;;
7361;SDS011;3721;44.490;11.220;2022-09-24T15:55:49;6.10;;;4.00;;
7361;SDS011;3721;44.490;11.220;2022-09-24T15:58:20;6.30;;;4.33;;
7361;SDS011;3721;44.490;11.220;2022-09-24T16:00:46;7.43;;;4.37;;
7361;SDS011;3721;44.490;11.220;2022-09-24T16:03:20;7.43;;;4.10;;
7361;SDS011;3721;44.490;11.220;2022-09-24T16:05:51;9.40;;;4.63;;
7361;SDS011;3721;44.490;11.220;2022-09-24T16:08:17;6.13;;;4.03;;
7361;SDS011;3721;44.490;11.220;2022-09-24T16:10:44;9.00;;;4.83;;
7361;SDS011;3721;44.490;11.220;2022-09-24T16:13:11;7.13;;;4.20;;
7361;SDS011;3721;44.490;11.220;2022-09-24T16:15:38;14.10;;;4.10;;
7361;SDS011;3721;44.490;11.220;2022-09-24T16:18:04;8.07;;;4.40;;
7361;SDS011;3721;44.490;11.220;2022-09-24T16:20:31;7.53;;;4.60;;
7361;SDS011;3721;44.490;11.220;2022-09-24T16:22:56;7.77;;;5.37;;
7361;SDS011;3721;44.490;11.220;2022-09-24T16:25:22;8.00;;;4.67;;
7361;SDS011;3721;44.490;11.220;2022-09-24T16:27:48;13.57;;;5.07;;
7361;SDS011;3721;44.490;11.220;2022-09-24T16:30:15;8.63;;;4.90;;
7361;SDS011;3721;44.490;11.220;2022-09-24T16:32:41;10.87;;;4.83;;
7361;SDS011;3721;44.490;11.220;2022-09-24T16:35:07;8.80;;;5.57;;
7361;SDS011;3721;44.490;11.220;2022-09-24T16:37:35;6.80;;;5.13;;
7361;SDS011;3721;44.490;11.220;2022-09-24T16:40:01;7.00;;;4.13;;
7361;SDS011;3721;44.490;11.220;2022-09-24T16:42:28;6.17;;;4.00;;
7361;SDS011;3721;44.490;11.220;2022-09-24T16:44:53;7.00;;;3.83;;
7361;SDS011;3721;44.490;11.220;2022-09-24T16:47:19;6.23;;;4.33;;
7361;SDS011;3721;44.490;11.220;2022-09-24T16:49:46;5.67;;;3.57;;
7361;SDS011;3721;44.490;11.220;2022-09-24T16:52:11;10.03;;;4.73;;
7361;SDS011;3721;44.490;11.220;2022-09-24T16:54:37;6.87;;;4.00;;
7361;SDS011;3721;44.490;11.220;2022-09-24T16:57:03;7.70;;;4.33;;
7361;SDS011;3721;44.490;11.220;2022-09-24T16:59:30;8.10;;;4.47;;
7361;SDS011;3721;44.490;11.220;2022-09-24T17:01:56;9.33;;;4.60;;
7361;SDS011;3721;44.490;11.220;2022-09-24T17:04:23;7.83;;;4.23;;
7361;SDS011;3721;44.490;11.220;2022-09-24T17:06:52;8.73;;;4.60;;
7361;SDS011;3721;44.490;11.220;2022-09-24T17:09:18;13.20;;;5.60;;
7361;SDS011;3721;44.490;11.220;2022-09-24T17:12:02;7.53;;;4.77;;
7361;SDS011;3721;44.490;11.220;2022-09-24T17:14:28;7.43;;;4.20;;
7361;SDS011;3721;44.490;11.220;2022-09-24T17:16:54;8.30;;;5.30;;
7361;SDS011;3721;44.490;11.220;2022-09-24T17:19:20;6.37;;;4.43;;
7361;SDS011;3721;44.490;11.220;2022-09-24T17:21:46;7.83;;;4.77;;
7361;SDS011;3721;44.490;11.220;2022-09-24T17:24:14;8.40;;;4.90;;
7361;SDS011;3721;44.490;11.220;2022-09-24T17:26:41;7.03;;;5.00;;
7361;SDS011;3721;44.490;11.220;2022-09-24T17:29:08;9.50;;;5.50;;
7361;SDS011;3721;44.490;11.220;2022-09-24T17:31:33;9.23;;;5.80;;
7361;SDS011;3721;44.490;11.220;2022-09-24T17:34:00;7.57;;;5.13;;
7361;SDS011;3721;44.490;11.220;2022-09-24T17:36:29;12.93;;;5.40;;
7361;SDS011;3721;44.490;11.220;2022-09-24T17:38:56;7.20;;;5.13;;
7361;SDS011;3721;44.490;11.220;2022-09-24T17:41:24;6.03;;;4.93;;
7361;SDS011;3721;44.490;11.220;2022-09-24T17:43:51;11.33;;;4.50;;
7361;SDS011;3721;44.490;11.220;2022-09-24T17:46:18;8.83;;;5.33;;
7361;SDS011;3721;44.490;11.220;2022-09-24T17:48:47;10.57;;;5.60;;
7361;SDS011;3721;44.490;11.220;2022-09-24T17:51:17;7.23;;;5.33;;
7361;SDS011;3721;44.490;11.220;2022-09-24T17:53:49;7.73;;;5.73;;
7361;SDS011;3721;44.490;11.220;2022-09-24T17:56:18;12.10;;;6.10;;
7361;SDS011;3721;44.490;11.220;2022-09-24T17:58:45;9.33;;;5.23;;
7361;SDS011;3721;44.490;11.220;2022-09-24T18:01:19;8.73;;;6.23;;
7361;SDS011;3721;44.490;11.220;2022-09-24T18:03:50;7.77;;;6.30;;
7361;SDS011;3721;44.490;11.220;2022-09-24T18:06:20;8.73;;;6.00;;
7361;SDS011;3721;44.490;11.220;2022-09-24T18:08:46;13.13;;;7.13;;
7361;SDS011;3721;44.490;11.220;2022-09-24T18:13:55;10.63;;;6.63;;
7361;SDS011;3721;44.490;11.220;2022-09-24T18:16:24;9.50;;;6.80;;
7361;SDS011;3721;44.490;11.220;2022-09-24T18:18:54;9.37;;;6.47;;
7361;SDS011;3721;44.490;11.220;2022-09-24T18:21:21;11.40;;;6.33;;
7361;SDS011;3721;44.490;11.220;2022-09-24T18:23:50;10.33;;;6.87;;
7361;SDS011;3721;44.490;11.220;2022-09-24T18:26:22;12.43;;;6.33;;
7361;SDS011;3721;44.490;11.220;2022-09-24T18:28:50;9.07;;;6.57;;
7361;SDS011;3721;44.490;11.220;2022-09-24T18:31:18;9.20;;;7.10;;
7361;SDS011;3721;44.490;11.220;2022-09-24T18:33:46;11.93;;;8.80;;
7361;SDS011;3721;44.490;11.220;2022-09-24T18:36:14;13.67;;;7.63;;
7361;SDS011;3721;44.490;11.220;2022-09-24T18:38:42;9.77;;;7.23;;
7361;SDS011;3721;44.490;11.220;2022-09-24T18:41:18;12.77;;;7.13;;
7361;SDS011;3721;44.490;11.220;2022-09-24T18:43:48;11.77;;;8.00;;
7361;SDS011;3721;44.490;11.220;2022-09-24T18:46:16;12.80;;;8.07;;
7361;SDS011;3721;44.490;11.220;2022-09-24T18:48:43;10.77;;;8.17;;
7361;SDS011;3721;44.490;11.220;2022-09-24T18:51:18;12.07;;;8.97;;
7361;SDS011;3721;44.490;11.220;2022-09-24T18:56:27;10.43;;;8.20;;
7361;SDS011;3721;44.490;11.220;2022-09-24T18:58:57;11.67;;;8.30;;
7361;SDS011;3721;44.490;11.220;2022-09-24T19:01:28;9.73;;;8.27;;
7361;SDS011;3721;44.490;11.220;2022-09-24T19:03:56;11.80;;;8.73;;
7361;SDS011;3721;44.490;11.220;2022-09-24T19:06:40;14.83;;;10.23;;
7361;SDS011;3721;44.490;11.220;2022-09-24T19:09:35;13.20;;;9.47;;
7361;SDS011;3721;44.490;11.220;2022-09-24T19:12:15;13.50;;;9.30;;
7361;SDS011;3721;44.490;11.220;2022-09-24T19:15:19;20.30;;;10.83;;
7361;SDS011;3721;44.490;11.220;2022-09-24T19:17:49;15.60;;;10.93;;
7361;SDS011;3721;44.490;11.220;2022-09-24T19:20:23;13.33;;;10.87;;
7361;SDS011;3721;44.490;11.220;2022-09-24T19:23:24;14.80;;;11.43;;
7361;SDS011;3721;44.490;11.220;2022-09-24T19:29:31;16.63;;;11.83;;
7361;SDS011;3721;44.490;11.220;2022-09-24T19:35:15;16.50;;;12.80;;
7361;SDS011;3721;44.490;11.220;2022-09-24T19:38:02;18.23;;;13.50;;
7361;SDS011;3721;44.490;11.220;2022-09-24T19:40:42;19.23;;;14.27;;
7361;SDS011;3721;44.490;11.220;2022-09-24T19:43:18;17.53;;;14.47;;
7361;SDS011;3721;44.490;11.220;2022-09-24T19:49:29;17.83;;;14.43;;
7361;SDS011;3721;44.490;11.220;2022-09-24T19:52:06;20.77;;;14.70;;
7361;SDS011;3721;44.490;11.220;2022-09-24T19:55:36;18.77;;;14.03;;
7361;SDS011;3721;44.490;11.220;2022-09-24T19:58:24;20.47;;;15.73;;
7361;SDS011;3721;44.490;11.220;2022-09-24T20:01:19;20.53;;;16.00;;
7361;SDS011;3721;44.490;11.220;2022-09-24T20:04:42;20.07;;;15.50;;
7361;SDS011;3721;44.490;11.220;2022-09-24T20:10:41;23.80;;;16.47;;
7361;SDS011;3721;44.490;11.220;2022-09-24T20:13:17;20.80;;;15.60;;
7361;SDS011;3721;44.490;11.220;2022-09-24T20:16:06;21.63;;;16.50;;
7361;SDS011;3721;44.490;11.220;2022-09-24T20:18:53;21.23;;;16.50;;
7361;SDS011;3721;44.490;11.220;2022-09-24T20:21:32;22.70;;;16.90;;
7361;SDS011;3721;44.490;11.220;2022-09-24T20:27:07;27.83;;;20.03;;
7361;SDS011;3721;44.490;11.220;2022-09-24T20:39:21;24.13;;;20.10;;
7361;SDS011;3721;44.490;11.220;2022-09-24T20:42:27;26.67;;;20.80;;
7361;SDS011;3721;44.490;11.220;2022-09-24T20:45:05;26.70;;;20.10;;
7361;SDS011;3721;44.490;11.220;2022-09-24T20:47:42;28.33;;;21.67;;
7361;SDS011;3721;44.490;11.220;2022-09-24T20:50:17;26.03;;;21.10;;
7361;SDS011;3721;44.490;11.220;2022-09-24T20:53:01;29.60;;;22.70;;
7361;SDS011;3721;44.490;11.220;2022-09-24T20:55:39;25.53;;;21.07;;
7361;SDS011;3721;44.490;11.220;2022-09-24T20:58:41;32.20;;;23.87;;
7361;SDS011;3721;44.490;11.220;2022-09-24T21:01:19;32.70;;;24.90;;
7361;SDS011;3721;44.490;11.220;2022-09-24T21:03:54;32.67;;;24.37;;
7361;SDS011;3721;44.490;11.220;2022-09-24T21:06:34;36.07;;;27.23;;
7361;SDS011;3721;44.490;11.220;2022-09-24T21:09:14;36.17;;;28.00;;
7361;SDS011;3721;44.490;11.220;2022-09-24T21:11:58;35.87;;;26.83;;
7361;SDS011;3721;44.490;11.220;2022-09-24T21:15:21;32.30;;;26.20;;
7361;SDS011;3721;44.490;11.220;2022-09-24T21:18:08;32.40;;;25.90;;
7361;SDS011;3721;44.490;11.220;2022-09-24T21:21:13;36.00;;;26.67;;
7361;SDS011;3721;44.490;11.220;2022-09-24T21:26:58;35.00;;;26.93;;
7361;SDS011;3721;44.490;11.220;2022-09-24T21:29:38;36.17;;;27.70;;
7361;SDS011;3721;44.490;11.220;2022-09-24T21:32:17;40.10;;;30.60;;
7361;SDS011;3721;44.490;11.220;2022-09-24T21:38:18;57.50;;;38.40;;
7361;SDS011;3721;44.490;11.220;2022-09-24T21:40:59;56.73;;;39.40;;
7361;SDS011;3721;44.490;11.220;2022-09-24T21:47:07;71.90;;;44.73;;
7361;SDS011;3721;44.490;11.220;2022-09-24T21:49:36;63.37;;;43.30;;
7361;SDS011;3721;44.490;11.220;2022-09-24T21:52:03;63.90;;;43.13;;
7361;SDS011;3721;44.490;11.220;2022-09-24T21:54:32;59.53;;;41.97;;
7361;SDS011;3721;44.490;11.220;2022-09-24T21:56:58;65.97;;;44.27;;
7361;SDS011;3721;44.490;11.220;2022-09-24T21:59:24;62.93;;;42.70;;
7361;SDS011;3721;44.490;11.220;2022-09-24T22:02:09;64.23;;;42.93;;
7361;SDS011;3721;44.490;11.220;2022-09-24T22:04:36;65.47;;;44.77;;
7361;SDS011;3721;44.490;11.220;2022-09-24T22:07:02;63.83;;;45.97;;
7361;SDS011;3721;44.490;11.220;2022-09-24T22:09:28;69.53;;;47.03;;
7361;SDS011;3721;44.490;11.220;2022-09-24T22:11:57;67.90;;;46.40;;
7361;SDS011;3721;44.490;11.220;2022-09-24T22:14:24;68.63;;;46.23;;
7361;SDS011;3721;44.490;11.220;2022-09-24T22:16:51;74.20;;;47.10;;
7361;SDS011;3721;44.490;11.220;2022-09-24T22:19:17;75.80;;;51.30;;
7361;SDS011;3721;44.490;11.220;2022-09-24T22:21:43;71.10;;;48.73;;
7361;SDS011;3721;44.490;11.220;2022-09-24T22:24:09;81.20;;;50.70;;
7361;SDS011;3721;44.490;11.220;2022-09-24T22:26:35;81.07;;;49.80;;
7361;SDS011;3721;44.490;11.220;2022-09-24T22:29:00;79.93;;;50.63;;
7361;SDS011;3721;44.490;11.220;2022-09-24T22:31:28;82.80;;;52.60;;
7361;SDS011;3721;44.490;11.220;2022-09-24T22:33:54;80.03;;;50.37;;
7361;SDS011;3721;44.490;11.220;2022-09-24T22:36:38;78.07;;;50.63;;
7361;SDS011;3721;44.490;11.220;2022-09-24T22:39:04;83.40;;;51.17;;
7361;SDS011;3721;44.490;11.220;2022-09-24T22:41:33;75.80;;;50.30;;
7361;SDS011;3721;44.490;11.220;2022-09-24T22:44:00;83.63;;;54.17;;
7361;SDS011;3721;44.490;11.220;2022-09-24T22:46:26;88.67;;;51.27;;
7361;SDS011;3721;44.490;11.220;2022-09-24T22:48:53;95.57;;;54.90;;
7361;SDS011;3721;44.490;11.220;2022-09-24T22:51:19;90.57;;;53.87;;
7361;SDS011;3721;44.490;11.220;2022-09-24T22:53:45;86.07;;;54.10;;
7361;SDS011;3721;44.490;11.220;2022-09-24T22:56:15;85.47;;;52.37;;
7361;SDS011;3721;44.490;11.220;2022-09-24T22:58:43;99.80;;;55.93;;
7361;SDS011;3721;44.490;11.220;2022-09-24T23:01:18;93.40;;;55.03;;
7361;SDS011;3721;44.490;11.220;2022-09-24T23:03:48;99.00;;;58.77;;
7361;SDS011;3721;44.490;11.220;2022-09-24T23:06:15;99.03;;;58.73;;
7361;SDS011;3721;44.490;11.220;2022-09-24T23:08:41;94.17;;;56.00;;
7361;SDS011;3721;44.490;11.220;2022-09-24T23:11:15;102.50;;;57.00;;
7361;SDS011;3721;44.490;11.220;2022-09-24T23:13:46;98.97;;;57.37;;
7361;SDS011;3721;44.490;11.220;2022-09-24T23:16:17;102.40;;;56.63;;
7361;SDS011;3721;44.490;11.220;2022-09-24T23:18:46;100.27;;;58.40;;
7361;SDS011;3721;44.490;11.220;2022-09-24T23:21:13;102.43;;;58.10;;
7361;SDS011;3721;44.490;11.220;2022-09-24T23:23:41;98.33;;;56.80;;
7361;SDS011;3721;44.490;11.220;2022-09-24T23:26:08;99.57;;;57.20;;
7361;SDS011;3721;44.490;11.220;2022-09-24T23:28:36;88.87;;;57.23;;
7361;SDS011;3721;44.490;11.220;2022-09-24T23:31:03;107.57;;;59.73;;
7361;SDS011;3721;44.490;11.220;2022-09-24T23:33:31;102.30;;;56.80;;
7361;SDS011;3721;44.490;11.220;2022-09-24T23:35:58;103.50;;;58.67;;
7361;SDS011;3721;44.490;11.220;2022-09-24T23:38:24;108.03;;;59.90;;
7361;SDS011;3721;44.490;11.220;2022-09-24T23:40:50;109.23;;;59.83;;
7361;SDS011;3721;44.490;11.220;2022-09-24T23:43:16;103.90;;;58.47;;
7361;SDS011;3721;44.490;11.220;2022-09-24T23:45:42;102.73;;;59.33;;
7361;SDS011;3721;44.490;11.220;2022-09-24T23:48:10;108.53;;;60.53;;
7361;SDS011;3721;44.490;11.220;2022-09-24T23:50:36;102.13;;;58.77;;
7361;SDS011;3721;44.490;11.220;2022-09-24T23:53:01;111.77;;;62.40;;
7361;SDS011;3721;44.490;11.220;2022-09-24T23:55:28;104.90;;;60.23;;
7361;SDS011;3721;44.490;11.220;2022-09-24T23:57:55;110.37;;;64.90;;
